Decoded Metar for KHDN (HAYDEN/YAMPA in CO, USA) (IATA:HDN) | Meteo·Mobile Aviation Weather
aviador You're here:

KHDN Decoded Metar

HAYDEN/YAMPA in CO, USA
Report Time2018-08-21 18:56:00
UTC Time2018-08-21 19:55:53
Flight Rules vfr VFR
Wind080° at 14 kt
W.Decomp.*RWY 10: 12.1 kt HW 7 kt LCW
W.Rank080° ranks 10
Current wind is above 080° avg. (6.0)
Visibility9999 m
Phenomena:N/A
Clouds:Broken 085 Hf
Expected CloudBase > 1,200 ft AGL from Temp-Dew spread
Ceiling8,500 ft
Temp15°C (ISA +13)
Dew Point12°C (82% RH)
AAT10.6°C
QNH1027 hPa
Density Alt7,864 ft
Elevation6,601 ft
Report Wrong Elevation
Raw Report
KHDN 211856Z AUTO 08014KT 10SM BKN085 15/12 A3034 RMK AO2 RAE09
SLP211 P0000 T01500117=

Extra information for KHDN:More info

Metar Taf Metar & Taf Last 4 Metars F.Rules Stats Wind Profile Meteogram Temp Stats Airport Information Weather charts Add Link Nearby VenuesMetar ALERT Operation Metar Decoded Social comments

AIRNAV info for KHDN